sensor_id;sensor_type;location;lat;lon;timestamp;temperature;humidity
51853;DHT22;37894;53.172;6.598;2023-07-29T00:01:42;18.20;99.90
51853;DHT22;37894;53.172;6.598;2023-07-29T00:04:08;18.20;99.90
51853;DHT22;37894;53.172;6.598;2023-07-29T00:06:35;18.20;99.90
51853;DHT22;37894;53.172;6.598;2023-07-29T00:09:01;18.20;99.90
51853;DHT22;37894;53.172;6.598;2023-07-29T00:11:27;18.20;99.90
51853;DHT22;37894;53.172;6.598;2023-07-29T00:13:53;18.20;99.90
51853;DHT22;37894;53.172;6.598;2023-07-29T00:16:20;18.20;99.90
51853;DHT22;37894;53.172;6.598;2023-07-29T00:18:48;18.20;99.90
51853;DHT22;37894;53.172;6.598;2023-07-29T00:21:14;18.20;99.90
51853;DHT22;37894;53.172;6.598;2023-07-29T00:23:39;18.20;99.90
51853;DHT22;37894;53.172;6.598;2023-07-29T00:26:05;18.20;99.90
51853;DHT22;37894;53.172;6.598;2023-07-29T00:28:31;18.10;99.90
51853;DHT22;37894;53.172;6.598;2023-07-29T00:30:57;18.20;99.90
51853;DHT22;37894;53.172;6.598;2023-07-29T00:33:22;18.20;99.90
51853;DHT22;37894;53.172;6.598;2023-07-29T00:35:48;18.20;99.90
51853;DHT22;37894;53.172;6.598;2023-07-29T00:38:14;18.20;99.90
51853;DHT22;37894;53.172;6.598;2023-07-29T00:40:40;18.20;99.90
51853;DHT22;37894;53.172;6.598;2023-07-29T00:43:05;18.20;99.90
51853;DHT22;37894;53.172;6.598;2023-07-29T00:45:32;18.20;99.90
51853;DHT22;37894;53.172;6.598;2023-07-29T00:47:59;18.20;99.90
51853;DHT22;37894;53.172;6.598;2023-07-29T00:50:25;18.20;99.90
51853;DHT22;37894;53.172;6.598;2023-07-29T00:52:54;18.20;99.90
51853;DHT22;37894;53.172;6.598;2023-07-29T00:55:19;18.20;99.90
51853;DHT22;37894;53.172;6.598;2023-07-29T00:57:45;18.20;99.90
51853;DHT22;37894;53.172;6.598;2023-07-29T01:00:14;18.20;99.90
51853;DHT22;37894;53.172;6.598;2023-07-29T01:02:42;18.20;99.90
51853;DHT22;37894;53.172;6.598;2023-07-29T01:05:08;18.20;99.90
51853;DHT22;37894;53.172;6.598;2023-07-29T01:07:51;18.10;99.90
51853;DHT22;37894;53.172;6.598;2023-07-29T01:10:33;18.10;99.90
51853;DHT22;37894;53.172;6.598;2023-07-29T01:13:10;18.10;99.90
51853;DHT22;37894;53.172;6.598;2023-07-29T01:16:02;18.10;99.90
51853;DHT22;37894;53.172;6.598;2023-07-29T01:18:31;18.10;99.90
51853;DHT22;37894;53.172;6.598;2023-07-29T01:21:04;18.10;99.90
51853;DHT22;37894;53.172;6.598;2023-07-29T01:23:30;18.00;99.90
51853;DHT22;37894;53.172;6.598;2023-07-29T01:25:56;18.00;99.90
51853;DHT22;37894;53.172;6.598;2023-07-29T01:28:22;18.00;99.90
51853;DHT22;37894;53.172;6.598;2023-07-29T01:30:51;18.00;99.90
51853;DHT22;37894;53.172;6.598;2023-07-29T01:33:26;17.90;99.90
51853;DHT22;37894;53.172;6.598;2023-07-29T01:35:57;17.90;99.90
51853;DHT22;37894;53.172;6.598;2023-07-29T01:38:34;17.90;99.90
51853;DHT22;37894;53.172;6.598;2023-07-29T01:41:02;17.90;99.90
51853;DHT22;37894;53.172;6.598;2023-07-29T01:43:29;17.80;99.90
51853;DHT22;37894;53.172;6.598;2023-07-29T01:45:55;17.80;99.90
51853;DHT22;37894;53.172;6.598;2023-07-29T01:48:21;17.70;99.90
51853;DHT22;37894;53.172;6.598;2023-07-29T01:50:47;17.70;99.90
51853;DHT22;37894;53.172;6.598;2023-07-29T01:53:13;17.70;99.90
51853;DHT22;37894;53.172;6.598;2023-07-29T01:55:39;17.60;99.90
51853;DHT22;37894;53.172;6.598;2023-07-29T01:58:05;17.60;99.90
51853;DHT22;37894;53.172;6.598;2023-07-29T02:00:30;17.50;99.90
51853;DHT22;37894;53.172;6.598;2023-07-29T02:02:56;17.50;99.90
51853;DHT22;37894;53.172;6.598;2023-07-29T02:05:22;17.40;99.90
51853;DHT22;37894;53.172;6.598;2023-07-29T02:07:47;17.40;99.90
51853;DHT22;37894;53.172;6.598;2023-07-29T02:10:13;17.40;99.90
51853;DHT22;37894;53.172;6.598;2023-07-29T02:12:39;17.30;99.90
51853;DHT22;37894;53.172;6.598;2023-07-29T02:15:05;17.30;99.90
51853;DHT22;37894;53.172;6.598;2023-07-29T02:17:31;17.30;99.90
51853;DHT22;37894;53.172;6.598;2023-07-29T02:19:57;17.20;99.90
51853;DHT22;37894;53.172;6.598;2023-07-29T02:22:22;17.20;99.90
51853;DHT22;37894;53.172;6.598;2023-07-29T02:24:48;17.20;99.90
51853;DHT22;37894;53.172;6.598;2023-07-29T02:27:14;17.20;99.90
51853;DHT22;37894;53.172;6.598;2023-07-29T02:29:39;16.60;99.90
51853;DHT22;37894;53.172;6.598;2023-07-29T02:32:05;17.10;99.90
51853;DHT22;37894;53.172;6.598;2023-07-29T02:34:31;17.10;99.90
51853;DHT22;37894;53.172;6.598;2023-07-29T02:36:57;17.10;99.90
51853;DHT22;37894;53.172;6.598;2023-07-29T02:39:22;17.00;99.90
51853;DHT22;37894;53.172;6.598;2023-07-29T02:41:49;17.00;99.90
51853;DHT22;37894;53.172;6.598;2023-07-29T02:44:15;17.00;99.90
51853;DHT22;37894;53.172;6.598;2023-07-29T02:46:41;17.00;99.90
51853;DHT22;37894;53.172;6.598;2023-07-29T02:49:07;17.00;99.90
51853;DHT22;37894;53.172;6.598;2023-07-29T02:51:33;17.00;99.90
51853;DHT22;37894;53.172;6.598;2023-07-29T02:53:58;17.00;99.90
51853;DHT22;37894;53.172;6.598;2023-07-29T02:56:24;17.00;99.90
51853;DHT22;37894;53.172;6.598;2023-07-29T02:58:50;17.00;99.90
51853;DHT22;37894;53.172;6.598;2023-07-29T03:01:18;16.90;99.90
51853;DHT22;37894;53.172;6.598;2023-07-29T03:03:44;16.90;99.90
51853;DHT22;37894;53.172;6.598;2023-07-29T03:06:14;16.90;99.90
51853;DHT22;37894;53.172;6.598;2023-07-29T03:08:40;16.90;99.90
51853;DHT22;37894;53.172;6.598;2023-07-29T03:11:07;16.90;99.90
51853;DHT22;37894;53.172;6.598;2023-07-29T03:13:33;16.80;99.90
51853;DHT22;37894;53.172;6.598;2023-07-29T03:16:13;16.80;99.90
51853;DHT22;37894;53.172;6.598;2023-07-29T03:18:39;16.80;99.90
51853;DHT22;37894;53.172;6.598;2023-07-29T03:21:06;16.70;99.90
51853;DHT22;37894;53.172;6.598;2023-07-29T03:23:32;16.70;99.90
51853;DHT22;37894;53.172;6.598;2023-07-29T03:26:00;16.70;99.90
51853;DHT22;37894;53.172;6.598;2023-07-29T03:28:27;16.70;99.90
51853;DHT22;37894;53.172;6.598;2023-07-29T03:30:54;16.70;99.90
51853;DHT22;37894;53.172;6.598;2023-07-29T03:33:19;16.70;99.90
51853;DHT22;37894;53.172;6.598;2023-07-29T03:35:45;16.60;99.90
51853;DHT22;37894;53.172;6.598;2023-07-29T03:38:11;16.60;99.90
51853;DHT22;37894;53.172;6.598;2023-07-29T03:40:38;16.60;99.90
51853;DHT22;37894;53.172;6.598;2023-07-29T03:43:04;16.60;99.90
51853;DHT22;37894;53.172;6.598;2023-07-29T03:45:30;16.60;99.90
51853;DHT22;37894;53.172;6.598;2023-07-29T03:47:56;16.60;99.90
51853;DHT22;37894;53.172;6.598;2023-07-29T03:50:21;16.50;99.90
51853;DHT22;37894;53.172;6.598;2023-07-29T03:52:47;16.50;99.90
51853;DHT22;37894;53.172;6.598;2023-07-29T03:55:13;16.50;99.90
51853;DHT22;37894;53.172;6.598;2023-07-29T03:57:39;16.50;99.90
51853;DHT22;37894;53.172;6.598;2023-07-29T04:00:05;16.50;99.90
51853;DHT22;37894;53.172;6.598;2023-07-29T04:02:31;16.50;99.90
51853;DHT22;37894;53.172;6.598;2023-07-29T04:04:57;16.50;99.90
51853;DHT22;37894;53.172;6.598;2023-07-29T04:07:23;16.40;99.90
51853;DHT22;37894;53.172;6.598;2023-07-29T04:09:48;16.40;99.90
51853;DHT22;37894;53.172;6.598;2023-07-29T04:12:15;16.40;99.90
51853;DHT22;37894;53.172;6.598;2023-07-29T04:14:41;16.40;99.90
51853;DHT22;37894;53.172;6.598;2023-07-29T04:17:07;16.40;99.90
51853;DHT22;37894;53.172;6.598;2023-07-29T04:19:33;16.40;99.90
51853;DHT22;37894;53.172;6.598;2023-07-29T04:21:58;16.40;99.90
51853;DHT22;37894;53.172;6.598;2023-07-29T04:24:24;16.40;99.90
51853;DHT22;37894;53.172;6.598;2023-07-29T04:26:50;16.40;99.90
51853;DHT22;37894;53.172;6.598;2023-07-29T04:29:17;16.50;99.90
51853;DHT22;37894;53.172;6.598;2023-07-29T04:31:42;16.40;99.90
51853;DHT22;37894;53.172;6.598;2023-07-29T04:34:08;16.50;99.90
51853;DHT22;37894;53.172;6.598;2023-07-29T04:36:34;16.50;99.90
51853;DHT22;37894;53.172;6.598;2023-07-29T04:39:00;16.50;99.90
51853;DHT22;37894;53.172;6.598;2023-07-29T04:41:26;16.50;99.90
51853;DHT22;37894;53.172;6.598;2023-07-29T04:43:51;16.50;99.90
51853;DHT22;37894;53.172;6.598;2023-07-29T04:46:17;16.50;99.90
51853;DHT22;37894;53.172;6.598;2023-07-29T04:48:43;16.60;99.90
51853;DHT22;37894;53.172;6.598;2023-07-29T04:51:09;16.60;99.90
51853;DHT22;37894;53.172;6.598;2023-07-29T04:53:34;16.70;99.90
51853;DHT22;37894;53.172;6.598;2023-07-29T04:56:02;16.70;99.90
51853;DHT22;37894;53.172;6.598;2023-07-29T04:58:28;16.70;99.90
51853;DHT22;37894;53.172;6.598;2023-07-29T05:00:55;16.70;99.90
51853;DHT22;37894;53.172;6.598;2023-07-29T05:03:21;16.80;99.90
51853;DHT22;37894;53.172;6.598;2023-07-29T05:05:50;16.80;99.90
51853;DHT22;37894;53.172;6.598;2023-07-29T05:08:17;16.90;99.90
51853;DHT22;37894;53.172;6.598;2023-07-29T05:10:42;16.90;99.90
51853;DHT22;37894;53.172;6.598;2023-07-29T05:13:08;17.00;99.90
51853;DHT22;37894;53.172;6.598;2023-07-29T05:15:34;17.00;99.90
51853;DHT22;37894;53.172;6.598;2023-07-29T05:17:59;17.00;99.90
51853;DHT22;37894;53.172;6.598;2023-07-29T05:20:25;17.00;99.90
51853;DHT22;37894;53.172;6.598;2023-07-29T05:22:53;17.10;99.90
51853;DHT22;37894;53.172;6.598;2023-07-29T05:25:19;17.10;99.90
51853;DHT22;37894;53.172;6.598;2023-07-29T05:27:45;17.10;99.90
51853;DHT22;37894;53.172;6.598;2023-07-29T05:30:10;17.10;99.90
51853;DHT22;37894;53.172;6.598;2023-07-29T05:32:36;17.10;99.90
51853;DHT22;37894;53.172;6.598;2023-07-29T05:35:02;17.10;99.90
51853;DHT22;37894;53.172;6.598;2023-07-29T05:37:27;17.10;99.90
51853;DHT22;37894;53.172;6.598;2023-07-29T05:39:53;16.40;99.90
51853;DHT22;37894;53.172;6.598;2023-07-29T05:42:19;17.10;99.90
51853;DHT22;37894;53.172;6.598;2023-07-29T05:44:44;17.10;99.90
51853;DHT22;37894;53.172;6.598;2023-07-29T05:47:10;17.20;99.90
51853;DHT22;37894;53.172;6.598;2023-07-29T05:49:36;17.20;99.90
51853;DHT22;37894;53.172;6.598;2023-07-29T05:52:02;17.20;99.90
51853;DHT22;37894;53.172;6.598;2023-07-29T05:54:27;17.20;99.90
51853;DHT22;37894;53.172;6.598;2023-07-29T05:56:53;17.20;99.90
51853;DHT22;37894;53.172;6.598;2023-07-29T05:59:19;17.20;99.90
51853;DHT22;37894;53.172;6.598;2023-07-29T06:01:44;17.20;99.90
51853;DHT22;37894;53.172;6.598;2023-07-29T06:04:10;17.30;99.90
51853;DHT22;37894;53.172;6.598;2023-07-29T06:06:36;17.30;99.90
51853;DHT22;37894;53.172;6.598;2023-07-29T06:09:01;17.30;99.90
51853;DHT22;37894;53.172;6.598;2023-07-29T06:11:27;17.30;99.90
51853;DHT22;37894;53.172;6.598;2023-07-29T06:13:53;17.30;99.90
51853;DHT22;37894;53.172;6.598;2023-07-29T06:16:18;17.30;99.90
51853;DHT22;37894;53.172;6.598;2023-07-29T06:18:44;17.30;99.90
51853;DHT22;37894;53.172;6.598;2023-07-29T06:21:10;17.40;99.90
51853;DHT22;37894;53.172;6.598;2023-07-29T06:23:37;17.40;99.90
51853;DHT22;37894;53.172;6.598;2023-07-29T06:26:03;17.50;99.90
51853;DHT22;37894;53.172;6.598;2023-07-29T06:28:29;17.50;99.90
51853;DHT22;37894;53.172;6.598;2023-07-29T06:30:54;17.60;99.90
51853;DHT22;37894;53.172;6.598;2023-07-29T06:33:20;17.70;99.90
51853;DHT22;37894;53.172;6.598;2023-07-29T06:35:46;17.80;99.90
51853;DHT22;37894;53.172;6.598;2023-07-29T06:38:11;17.90;99.90
51853;DHT22;37894;53.172;6.598;2023-07-29T06:40:37;18.10;99.90
51853;DHT22;37894;53.172;6.598;2023-07-29T06:43:03;18.20;99.90
51853;DHT22;37894;53.172;6.598;2023-07-29T06:45:28;18.30;99.90
51853;DHT22;37894;53.172;6.598;2023-07-29T06:47:54;18.40;99.90
51853;DHT22;37894;53.172;6.598;2023-07-29T06:50:20;18.40;99.90
51853;DHT22;37894;53.172;6.598;2023-07-29T06:52:45;18.50;99.90
51853;DHT22;37894;53.172;6.598;2023-07-29T06:55:11;18.50;99.90
51853;DHT22;37894;53.172;6.598;2023-07-29T06:57:37;18.50;99.90
51853;DHT22;37894;53.172;6.598;2023-07-29T07:00:03;18.60;99.90
51853;DHT22;37894;53.172;6.598;2023-07-29T07:02:29;18.60;99.90
51853;DHT22;37894;53.172;6.598;2023-07-29T07:04:55;18.70;99.90
51853;DHT22;37894;53.172;6.598;2023-07-29T07:07:21;18.70;99.90
51853;DHT22;37894;53.172;6.598;2023-07-29T07:09:46;18.80;99.90
51853;DHT22;37894;53.172;6.598;2023-07-29T07:12:12;18.80;99.90
51853;DHT22;37894;53.172;6.598;2023-07-29T07:14:38;18.90;99.90
51853;DHT22;37894;53.172;6.598;2023-07-29T07:17:04;19.00;99.90
51853;DHT22;37894;53.172;6.598;2023-07-29T07:19:29;19.00;99.90
51853;DHT22;37894;53.172;6.598;2023-07-29T07:21:55;19.10;99.90
51853;DHT22;37894;53.172;6.598;2023-07-29T07:24:21;19.10;99.90
51853;DHT22;37894;53.172;6.598;2023-07-29T07:26:47;19.20;99.90
51853;DHT22;37894;53.172;6.598;2023-07-29T07:29:13;19.30;99.90
51853;DHT22;37894;53.172;6.598;2023-07-29T07:31:38;19.20;99.90
51853;DHT22;37894;53.172;6.598;2023-07-29T07:34:04;19.20;99.90
51853;DHT22;37894;53.172;6.598;2023-07-29T07:36:30;19.20;99.90
51853;DHT22;37894;53.172;6.598;2023-07-29T07:38:56;19.20;99.90
51853;DHT22;37894;53.172;6.598;2023-07-29T07:41:22;19.20;99.90
51853;DHT22;37894;53.172;6.598;2023-07-29T07:43:47;19.30;99.90
51853;DHT22;37894;53.172;6.598;2023-07-29T07:46:13;19.30;99.90
51853;DHT22;37894;53.172;6.598;2023-07-29T07:48:39;19.40;99.90
51853;DHT22;37894;53.172;6.598;2023-07-29T07:51:11;19.50;99.90
51853;DHT22;37894;53.172;6.598;2023-07-29T07:53:37;19.60;99.90
51853;DHT22;37894;53.172;6.598;2023-07-29T07:56:03;19.60;99.90
51853;DHT22;37894;53.172;6.598;2023-07-29T07:58:29;19.70;99.90
51853;DHT22;37894;53.172;6.598;2023-07-29T08:01:05;19.80;99.90
51853;DHT22;37894;53.172;6.598;2023-07-29T08:03:31;19.90;99.90
51853;DHT22;37894;53.172;6.598;2023-07-29T08:05:57;20.10;99.90
51853;DHT22;37894;53.172;6.598;2023-07-29T08:08:23;20.20;99.90
51853;DHT22;37894;53.172;6.598;2023-07-29T08:10:49;20.30;99.90
51853;DHT22;37894;53.172;6.598;2023-07-29T08:13:14;20.30;99.90
51853;DHT22;37894;53.172;6.598;2023-07-29T08:15:40;20.30;99.90
51853;DHT22;37894;53.172;6.598;2023-07-29T08:18:06;20.20;99.90
51853;DHT22;37894;53.172;6.598;2023-07-29T08:20:32;20.20;99.90
51853;DHT22;37894;53.172;6.598;2023-07-29T08:22:58;20.20;99.90
51853;DHT22;37894;53.172;6.598;2023-07-29T08:25:24;20.20;99.90
51853;DHT22;37894;53.172;6.598;2023-07-29T08:27:49;20.30;99.90
51853;DHT22;37894;53.172;6.598;2023-07-29T08:30:15;20.40;99.90
51853;DHT22;37894;53.172;6.598;2023-07-29T08:32:42;20.50;99.90
51853;DHT22;37894;53.172;6.598;2023-07-29T08:35:07;20.60;99.90
51853;DHT22;37894;53.172;6.598;2023-07-29T08:37:33;20.70;99.90
51853;DHT22;37894;53.172;6.598;2023-07-29T08:39:59;20.70;99.90
51853;DHT22;37894;53.172;6.598;2023-07-29T08:42:29;20.80;99.90
51853;DHT22;37894;53.172;6.598;2023-07-29T08:44:56;20.80;99.90
51853;DHT22;37894;53.172;6.598;2023-07-29T08:47:27;20.90;99.90
51853;DHT22;37894;53.172;6.598;2023-07-29T08:49:54;20.80;99.90
51853;DHT22;37894;53.172;6.598;2023-07-29T08:52:20;20.70;99.90
51853;DHT22;37894;53.172;6.598;2023-07-29T08:54:46;20.60;99.90
51853;DHT22;37894;53.172;6.598;2023-07-29T08:57:13;20.50;99.90
51853;DHT22;37894;53.172;6.598;2023-07-29T08:59:39;20.50;99.90
51853;DHT22;37894;53.172;6.598;2023-07-29T09:02:06;20.50;99.90
51853;DHT22;37894;53.172;6.598;2023-07-29T09:04:32;20.50;99.90
51853;DHT22;37894;53.172;6.598;2023-07-29T09:06:58;20.60;99.90
51853;DHT22;37894;53.172;6.598;2023-07-29T09:09:25;20.70;99.90
51853;DHT22;37894;53.172;6.598;2023-07-29T09:11:51;20.80;99.90
51853;DHT22;37894;53.172;6.598;2023-07-29T09:14:17;20.90;99.90
51853;DHT22;37894;53.172;6.598;2023-07-29T09:16:43;21.00;99.90
51853;DHT22;37894;53.172;6.598;2023-07-29T09:19:09;21.00;99.90
51853;DHT22;37894;53.172;6.598;2023-07-29T09:21:39;21.00;99.90
51853;DHT22;37894;53.172;6.598;2023-07-29T09:24:05;20.90;99.90
51853;DHT22;37894;53.172;6.598;2023-07-29T09:26:33;20.90;99.90
51853;DHT22;37894;53.172;6.598;2023-07-29T09:28:59;21.10;99.90
51853;DHT22;37894;53.172;6.598;2023-07-29T09:31:27;21.20;99.90
51853;DHT22;37894;53.172;6.598;2023-07-29T09:34:02;21.30;99.90
51853;DHT22;37894;53.172;6.598;2023-07-29T09:36:31;21.40;99.90
51853;DHT22;37894;53.172;6.598;2023-07-29T09:38:58;21.40;99.90
51853;DHT22;37894;53.172;6.598;2023-07-29T09:41:25;21.40;99.90
51853;DHT22;37894;53.172;6.598;2023-07-29T09:44:01;21.40;99.90
51853;DHT22;37894;53.172;6.598;2023-07-29T09:46:37;21.50;99.90
51853;DHT22;37894;53.172;6.598;2023-07-29T09:49:04;21.70;99.90
51853;DHT22;37894;53.172;6.598;2023-07-29T09:51:30;21.80;99.90
51853;DHT22;37894;53.172;6.598;2023-07-29T09:53:56;21.80;99.90
51853;DHT22;37894;53.172;6.598;2023-07-29T09:56:25;21.80;99.90
51853;DHT22;37894;53.172;6.598;2023-07-29T09:58:57;21.80;99.90
51853;DHT22;37894;53.172;6.598;2023-07-29T10:01:24;22.00;99.90
51853;DHT22;37894;53.172;6.598;2023-07-29T10:03:50;22.20;99.90
51853;DHT22;37894;53.172;6.598;2023-07-29T10:06:17;22.50;99.90
51853;DHT22;37894;53.172;6.598;2023-07-29T10:08:43;22.50;99.90
51853;DHT22;37894;53.172;6.598;2023-07-29T10:11:10;22.60;99.90
51853;DHT22;37894;53.172;6.598;2023-07-29T10:13:37;22.70;99.90
51853;DHT22;37894;53.172;6.598;2023-07-29T10:16:04;22.80;99.90
51853;DHT22;37894;53.172;6.598;2023-07-29T10:18:31;23.00;99.90
51853;DHT22;37894;53.172;6.598;2023-07-29T10:20:59;23.10;99.90
51853;DHT22;37894;53.172;6.598;2023-07-29T10:23:27;23.20;99.90
51853;DHT22;37894;53.172;6.598;2023-07-29T10:26:04;23.30;99.90
51853;DHT22;37894;53.172;6.598;2023-07-29T10:28:31;23.30;99.90
51853;DHT22;37894;53.172;6.598;2023-07-29T10:30:58;23.10;99.90
51853;DHT22;37894;53.172;6.598;2023-07-29T10:33:24;23.00;99.90
51853;DHT22;37894;53.172;6.598;2023-07-29T10:35:51;23.00;99.90
51853;DHT22;37894;53.172;6.598;2023-07-29T10:38:18;23.10;99.90
51853;DHT22;37894;53.172;6.598;2023-07-29T10:40:52;23.10;99.90
51853;DHT22;37894;53.172;6.598;2023-07-29T10:43:36;23.10;99.90
51853;DHT22;37894;53.172;6.598;2023-07-29T10:46:20;23.30;99.90
51853;DHT22;37894;53.172;6.598;2023-07-29T10:48:54;23.40;99.90
51853;DHT22;37894;53.172;6.598;2023-07-29T10:51:36;23.50;99.90
51853;DHT22;37894;53.172;6.598;2023-07-29T10:54:10;23.50;99.90
51853;DHT22;37894;53.172;6.598;2023-07-29T10:56:37;23.50;99.90
51853;DHT22;37894;53.172;6.598;2023-07-29T11:01:57;23.60;99.90
51853;DHT22;37894;53.172;6.598;2023-07-29T11:04:25;23.40;99.90
51853;DHT22;37894;53.172;6.598;2023-07-29T11:09:52;23.00;99.90
51853;DHT22;37894;53.172;6.598;2023-07-29T11:12:44;22.90;99.90
51853;DHT22;37894;53.172;6.598;2023-07-29T11:15:12;22.50;99.90
51853;DHT22;37894;53.172;6.598;2023-07-29T11:20:10;21.80;99.90
51853;DHT22;37894;53.172;6.598;2023-07-29T11:22:37;21.20;99.90
51853;DHT22;37894;53.172;6.598;2023-07-29T11:25:04;20.80;99.90
51853;DHT22;37894;53.172;6.598;2023-07-29T11:27:33;20.60;99.90
51853;DHT22;37894;53.172;6.598;2023-07-29T11:30:00;20.50;99.90
51853;DHT22;37894;53.172;6.598;2023-07-29T11:32:27;20.50;99.90
51853;DHT22;37894;53.172;6.598;2023-07-29T11:34:53;20.50;99.90
51853;DHT22;37894;53.172;6.598;2023-07-29T11:37:19;20.60;99.90
51853;DHT22;37894;53.172;6.598;2023-07-29T11:39:46;20.60;99.90
51853;DHT22;37894;53.172;6.598;2023-07-29T11:42:13;20.60;99.90
51853;DHT22;37894;53.172;6.598;2023-07-29T11:44:39;20.60;99.90
51853;DHT22;37894;53.172;6.598;2023-07-29T11:47:11;20.60;99.90
51853;DHT22;37894;53.172;6.598;2023-07-29T11:49:41;20.60;99.90
51853;DHT22;37894;53.172;6.598;2023-07-29T11:52:08;20.90;99.90
51853;DHT22;37894;53.172;6.598;2023-07-29T11:54:38;21.00;99.90
51853;DHT22;37894;53.172;6.598;2023-07-29T11:57:06;21.10;99.90
51853;DHT22;37894;53.172;6.598;2023-07-29T11:59:37;21.40;99.90
51853;DHT22;37894;53.172;6.598;2023-07-29T12:02:10;21.70;99.90
51853;DHT22;37894;53.172;6.598;2023-07-29T12:04:38;21.80;99.90
51853;DHT22;37894;53.172;6.598;2023-07-29T12:07:04;21.90;99.90
51853;DHT22;37894;53.172;6.598;2023-07-29T12:09:30;22.10;99.90
51853;DHT22;37894;53.172;6.598;2023-07-29T12:11:56;22.20;99.90
51853;DHT22;37894;53.172;6.598;2023-07-29T12:14:22;22.20;99.90
51853;DHT22;37894;53.172;6.598;2023-07-29T12:16:51;22.20;99.90
51853;DHT22;37894;53.172;6.598;2023-07-29T12:19:17;22.20;99.90
51853;DHT22;37894;53.172;6.598;2023-07-29T12:21:44;22.10;99.90
51853;DHT22;37894;53.172;6.598;2023-07-29T12:24:11;22.10;99.90
51853;DHT22;37894;53.172;6.598;2023-07-29T12:26:37;22.10;99.90
51853;DHT22;37894;53.172;6.598;2023-07-29T12:29:18;22.20;99.90
51853;DHT22;37894;53.172;6.598;2023-07-29T12:31:46;22.30;99.90
51853;DHT22;37894;53.172;6.598;2023-07-29T12:34:19;22.40;99.90
51853;DHT22;37894;53.172;6.598;2023-07-29T12:36:50;22.60;99.90
51853;DHT22;37894;53.172;6.598;2023-07-29T12:39:27;22.70;99.90
51853;DHT22;37894;53.172;6.598;2023-07-29T12:41:57;22.90;99.90
51853;DHT22;37894;53.172;6.598;2023-07-29T12:44:32;23.10;99.90
51853;DHT22;37894;53.172;6.598;2023-07-29T12:47:00;23.00;99.90
51853;DHT22;37894;53.172;6.598;2023-07-29T12:49:26;22.80;99.90
51853;DHT22;37894;53.172;6.598;2023-07-29T12:51:51;22.50;99.90
51853;DHT22;37894;53.172;6.598;2023-07-29T12:54:17;22.40;99.90
51853;DHT22;37894;53.172;6.598;2023-07-29T12:56:43;22.30;99.90
51853;DHT22;37894;53.172;6.598;2023-07-29T12:59:08;22.30;99.90
51853;DHT22;37894;53.172;6.598;2023-07-29T13:01:34;22.40;99.90
51853;DHT22;37894;53.172;6.598;2023-07-29T13:04:00;22.60;99.90
51853;DHT22;37894;53.172;6.598;2023-07-29T13:06:25;22.60;99.90
51853;DHT22;37894;53.172;6.598;2023-07-29T13:08:51;22.70;99.90
51853;DHT22;37894;53.172;6.598;2023-07-29T13:11:17;22.80;99.90
51853;DHT22;37894;53.172;6.598;2023-07-29T13:13:43;22.80;99.90
51853;DHT22;37894;53.172;6.598;2023-07-29T13:16:11;22.90;99.90
51853;DHT22;37894;53.172;6.598;2023-07-29T13:18:37;22.90;99.90
51853;DHT22;37894;53.172;6.598;2023-07-29T13:21:03;22.90;99.90
51853;DHT22;37894;53.172;6.598;2023-07-29T13:23:29;22.80;99.90
51853;DHT22;37894;53.172;6.598;2023-07-29T13:25:57;22.60;99.90
51853;DHT22;37894;53.172;6.598;2023-07-29T13:28:22;22.50;99.90
51853;DHT22;37894;53.172;6.598;2023-07-29T13:30:48;22.30;99.90
51853;DHT22;37894;53.172;6.598;2023-07-29T13:33:14;22.10;99.90
51853;DHT22;37894;53.172;6.598;2023-07-29T13:35:40;21.80;99.90
51853;DHT22;37894;53.172;6.598;2023-07-29T13:38:06;21.80;99.90
51853;DHT22;37894;53.172;6.598;2023-07-29T13:40:31;22.00;99.90
51853;DHT22;37894;53.172;6.598;2023-07-29T13:42:57;22.20;99.90
51853;DHT22;37894;53.172;6.598;2023-07-29T13:45:23;22.40;99.90
51853;DHT22;37894;53.172;6.598;2023-07-29T13:47:49;22.30;99.90
51853;DHT22;37894;53.172;6.598;2023-07-29T13:50:16;22.10;99.90
51853;DHT22;37894;53.172;6.598;2023-07-29T13:52:41;21.80;99.90
51853;DHT22;37894;53.172;6.598;2023-07-29T13:55:07;21.60;99.90
51853;DHT22;37894;53.172;6.598;2023-07-29T13:57:33;21.40;99.90
51853;DHT22;37894;53.172;6.598;2023-07-29T13:59:59;21.20;99.90
51853;DHT22;37894;53.172;6.598;2023-07-29T14:02:25;20.90;99.90
51853;DHT22;37894;53.172;6.598;2023-07-29T14:04:52;20.60;99.90
51853;DHT22;37894;53.172;6.598;2023-07-29T14:07:18;20.50;99.90
51853;DHT22;37894;53.172;6.598;2023-07-29T14:09:43;20.60;99.90
51853;DHT22;37894;53.172;6.598;2023-07-29T14:12:09;20.80;99.90
51853;DHT22;37894;53.172;6.598;2023-07-29T14:14:38;21.10;99.90
51853;DHT22;37894;53.172;6.598;2023-07-29T14:17:04;21.30;99.90
51853;DHT22;37894;53.172;6.598;2023-07-29T14:19:31;21.40;99.90
51853;DHT22;37894;53.172;6.598;2023-07-29T14:21:56;21.50;99.90
51853;DHT22;37894;53.172;6.598;2023-07-29T14:24:22;21.50;99.90
51853;DHT22;37894;53.172;6.598;2023-07-29T14:26:48;21.40;99.90
51853;DHT22;37894;53.172;6.598;2023-07-29T14:29:14;21.40;99.90
51853;DHT22;37894;53.172;6.598;2023-07-29T14:31:39;21.40;99.90
51853;DHT22;37894;53.172;6.598;2023-07-29T14:34:05;21.40;99.90
51853;DHT22;37894;53.172;6.598;2023-07-29T14:36:31;19.60;99.90
51853;DHT22;37894;53.172;6.598;2023-07-29T14:38:56;21.60;99.90
51853;DHT22;37894;53.172;6.598;2023-07-29T14:41:22;21.60;99.90
51853;DHT22;37894;53.172;6.598;2023-07-29T14:43:48;21.50;99.90
51853;DHT22;37894;53.172;6.598;2023-07-29T14:46:14;21.50;99.90
51853;DHT22;37894;53.172;6.598;2023-07-29T14:48:39;21.50;99.90
51853;DHT22;37894;53.172;6.598;2023-07-29T14:51:05;21.50;99.90
51853;DHT22;37894;53.172;6.598;2023-07-29T14:53:31;21.50;99.90
51853;DHT22;37894;53.172;6.598;2023-07-29T14:55:57;21.60;99.90
51853;DHT22;37894;53.172;6.598;2023-07-29T14:58:22;21.60;99.90
51853;DHT22;37894;53.172;6.598;2023-07-29T15:00:51;21.60;99.90
51853;DHT22;37894;53.172;6.598;2023-07-29T15:03:17;21.50;99.90
51853;DHT22;37894;53.172;6.598;2023-07-29T15:05:43;21.40;99.90
51853;DHT22;37894;53.172;6.598;2023-07-29T15:08:09;21.30;99.90
51853;DHT22;37894;53.172;6.598;2023-07-29T15:10:34;21.20;99.90
51853;DHT22;37894;53.172;6.598;2023-07-29T15:13:00;21.20;99.90
51853;DHT22;37894;53.172;6.598;2023-07-29T15:15:26;21.20;99.90
51853;DHT22;37894;53.172;6.598;2023-07-29T15:17:51;21.20;99.90
51853;DHT22;37894;53.172;6.598;2023-07-29T15:20:17;21.30;99.90
51853;DHT22;37894;53.172;6.598;2023-07-29T15:22:43;21.30;99.90
51853;DHT22;37894;53.172;6.598;2023-07-29T15:25:09;21.40;99.90
51853;DHT22;37894;53.172;6.598;2023-07-29T15:27:35;21.40;99.90
51853;DHT22;37894;53.172;6.598;2023-07-29T15:30:01;21.30;99.90
51853;DHT22;37894;53.172;6.598;2023-07-29T15:32:27;21.40;99.90
51853;DHT22;37894;53.172;6.598;2023-07-29T15:34:53;21.40;99.90
51853;DHT22;37894;53.172;6.598;2023-07-29T15:37:19;21.30;99.90